Time;durP1;ratioP1;P1;durP2;ratioP2;P2;SDS_P1;SDS_P2;PMS_P1;PMS_P2;Temp;Humidity;BMP_temperature;BMP_pressure;BME280_temperature;BME280_humidity;BME280_pressure;Samples;Min_cycle;Max_cycle;Signal;HPM_P1;HPM_P2
2023/07/29 00:00:14;;;;;;;15.97;14.90;;;;;;;;;;5031931;28;20440;-43
2023/07/29 00:02:42;;;;;;;16.50;15.43;;;;;;;;;;5031544;28;20466;-43
2023/07/29 00:05:11;;;;;;;18.13;16.83;;;;;;;;;;5028481;28;21227;-41
2023/07/29 00:07:38;;;;;;;17.27;16.17;;;;;;;;;;5031964;28;20432;-41
2023/07/29 00:10:06;;;;;;;16.97;15.67;;;;;;;;;;5031892;28;20526;-41
2023/07/29 00:12:34;;;;;;;17.57;16.37;;;;;;;;;;5031486;28;20498;-42
2023/07/29 00:15:01;;;;;;;16.93;15.83;;;;;;;;;;5031099;28;20989;-42
2023/07/29 00:17:29;;;;;;;17.67;16.33;;;;;;;;;;5031526;28;20467;-43
2023/07/29 00:19:56;;;;;;;15.17;14.17;;;;;;;;;;5031813;28;20494;-41
2023/07/29 00:22:25;;;;;;;16.67;15.63;;;;;;;;;;5031617;28;20436;-41
2023/07/29 00:24:54;;;;;;;17.27;16.10;;;;;;;;;;5031209;28;20464;-43
2023/07/29 00:27:22;;;;;;;16.97;15.67;;;;;;;;;;5031243;28;20444;-41
2023/07/29 00:29:49;;;;;;;16.90;15.70;;;;;;;;;;5031744;28;20508;-41
2023/07/29 00:32:17;;;;;;;15.87;14.80;;;;;;;;;;5031253;28;20516;-44
2023/07/29 00:34:44;;;;;;;16.30;15.27;;;;;;;;;;5031010;28;20542;-45
2023/07/29 00:37:12;;;;;;;18.50;17.20;;;;;;;;;;5031288;28;20566;-41
2023/07/29 00:39:41;;;;;;;16.83;15.73;;;;;;;;;;5031473;28;20436;-42
2023/07/29 00:42:09;;;;;;;18.13;16.87;;;;;;;;;;5031592;28;20447;-41
2023/07/29 00:44:37;;;;;;;18.53;17.40;;;;;;;;;;5034980;28;20471;-42
2023/07/29 00:47:06;;;;;;;17.80;16.60;;;;;;;;;;5035513;28;20471;-42
2023/07/29 00:49:33;;;;;;;19.53;18.13;;;;;;;;;;5035614;28;20799;-41
2023/07/29 00:52:00;;;;;;;19.03;17.63;;;;;;;;;;5035132;28;20436;-41
2023/07/29 00:54:28;;;;;;;17.83;16.57;;;;;;;;;;5034906;28;20486;-44
2023/07/29 00:56:57;;;;;;;17.23;16.23;;;;;;;;;;5035203;28;20471;-41
2023/07/29 00:59:24;;;;;;;18.00;16.77;;;;;;;;;;5035473;28;20798;-41
2023/07/29 01:01:52;;;;;;;18.40;17.10;;;;;;;;;;5035099;28;20451;-44
2023/07/29 01:04:19;;;;;;;19.40;18.00;;;;;;;;;;5034617;28;20521;-41
2023/07/29 01:06:50;;;;;;;19.03;17.83;;;;;;;;;;5035159;28;20432;-41
2023/07/29 01:09:23;;;;;;;20.00;18.70;;;;;;;;;;5035134;28;21142;-43
2023/07/29 01:11:53;;;;;;;21.17;19.47;;;;;;;;;;5035368;28;20440;-41
2023/07/29 01:14:30;;;;;;;19.40;17.93;;;;;;;;;;5034719;28;20513;-41
2023/07/29 01:17:00;;;;;;;19.90;18.30;;;;;;;;;;5034859;28;21086;-41
2023/07/29 01:19:42;;;;;;;19.23;17.83;;;;;;;;;;5035149;28;20751;-41
2023/07/29 01:22:11;;;;;;;19.13;17.80;;;;;;;;;;5034563;28;20440;-43
2023/07/29 01:24:39;;;;;;;19.17;17.90;;;;;;;;;;5034626;28;20463;-41
2023/07/29 01:27:07;;;;;;;17.83;16.53;;;;;;;;;;5034695;28;20440;-42
2023/07/29 01:29:35;;;;;;;16.80;15.67;;;;;;;;;;5034858;28;20639;-41
2023/07/29 01:32:08;;;;;;;17.40;16.40;;;;;;;;;;5034547;28;20459;-41
2023/07/29 01:34:40;;;;;;;18.63;17.30;;;;;;;;;;5034022;28;20465;-41
2023/07/29 01:37:10;;;;;;;18.47;17.17;;;;;;;;;;5034614;28;20562;-41
2023/07/29 01:39:37;;;;;;;18.20;16.87;;;;;;;;;;5034746;28;20428;-42
2023/07/29 01:42:07;;;;;;;18.00;16.50;;;;;;;;;;5034422;28;20873;-41
2023/07/29 01:44:35;;;;;;;17.40;16.30;;;;;;;;;;5033960;28;20467;-42
2023/07/29 01:47:03;;;;;;;17.23;16.13;;;;;;;;;;5034269;28;20815;-41
2023/07/29 01:49:30;;;;;;;16.73;15.70;;;;;;;;;;5034587;28;20514;-41
2023/07/29 01:51:58;;;;;;;16.40;15.20;;;;;;;;;;5034339;28;20440;-41
2023/07/29 01:54:25;;;;;;;16.97;15.97;;;;;;;;;;5033209;28;20470;-41
2023/07/29 01:56:53;;;;;;;17.17;15.87;;;;;;;;;;5034137;28;20440;-43
2023/07/29 01:59:22;;;;;;;16.63;15.63;;;;;;;;;;5034185;28;20950;-41
2023/07/29 02:01:49;;;;;;;19.20;17.70;;;;;;;;;;5033835;28;20442;-41
2023/07/29 02:04:17;;;;;;;18.63;17.33;;;;;;;;;;5031174;28;20556;-41
2023/07/29 02:06:44;;;;;;;19.10;17.80;;;;;;;;;;5033911;28;20435;-42
2023/07/29 02:09:11;;;;;;;19.30;18.00;;;;;;;;;;5034027;28;20431;-41
2023/07/29 02:11:39;;;;;;;18.60;17.40;;;;;;;;;;5033773;28;20439;-41
2023/07/29 02:14:06;;;;;;;18.53;17.23;;;;;;;;;;5033359;28;20546;-41
2023/07/29 02:16:37;;;;;;;19.30;17.80;;;;;;;;;;5034002;28;20523;-41
2023/07/29 02:19:05;;;;;;;19.07;17.67;;;;;;;;;;5033955;28;20471;-41
2023/07/29 02:21:32;;;;;;;20.40;19.00;;;;;;;;;;5033649;28;20482;-43
2023/07/29 02:24:00;;;;;;;21.77;20.20;;;;;;;;;;5033377;28;20460;-41
2023/07/29 02:26:27;;;;;;;19.13;17.73;;;;;;;;;;5033552;28;20465;-43
2023/07/29 02:28:55;;;;;;;20.10;18.50;;;;;;;;;;5033625;28;20510;-42
2023/07/29 02:31:23;;;;;;;20.70;19.30;;;;;;;;;;5033592;28;20432;-43
2023/07/29 02:33:53;;;;;;;23.33;21.13;;;;;;;;;;5033210;28;20460;-41
2023/07/29 02:36:20;;;;;;;21.33;19.73;;;;;;;;;;5033460;28;20982;-42
2023/07/29 02:38:48;;;;;;;21.50;19.70;;;;;;;;;;5033490;28;20521;-42
2023/07/29 02:41:16;;;;;;;18.00;16.70;;;;;;;;;;5033185;28;20438;-41
2023/07/29 02:43:44;;;;;;;20.33;18.93;;;;;;;;;;5032629;28;20483;-43
2023/07/29 02:46:11;;;;;;;22.07;20.20;;;;;;;;;;5033535;28;20427;-41
2023/07/29 02:48:39;;;;;;;21.50;19.90;;;;;;;;;;5033391;28;20432;-45
2023/07/29 02:51:07;;;;;;;20.73;19.13;;;;;;;;;;5033214;28;20930;-41
2023/07/29 02:53:36;;;;;;;21.00;19.20;;;;;;;;;;5032580;28;20468;-41
2023/07/29 02:56:04;;;;;;;21.87;20.07;;;;;;;;;;5033151;28;20428;-41
2023/07/29 02:58:31;;;;;;;21.50;19.90;;;;;;;;;;5033079;28;20471;-41
2023/07/29 03:01:01;;;;;;;22.73;20.73;;;;;;;;;;5033095;28;20493;-42
2023/07/29 03:03:28;;;;;;;22.13;20.63;;;;;;;;;;5032793;28;20857;-43
2023/07/29 03:05:58;;;;;;;19.90;18.60;;;;;;;;;;5031432;28;20450;-43
2023/07/29 03:08:27;;;;;;;22.67;21.00;;;;;;;;;;5032769;28;20432;-42
2023/07/29 03:10:54;;;;;;;21.73;20.13;;;;;;;;;;5033114;28;20438;-41
2023/07/29 03:13:22;;;;;;;21.90;20.30;;;;;;;;;;5032472;28;20998;-42
2023/07/29 03:15:49;;;;;;;22.73;20.93;;;;;;;;;;5032242;28;20459;-41
2023/07/29 03:18:17;;;;;;;23.33;21.37;;;;;;;;;;5032680;28;20499;-42
2023/07/29 03:20:45;;;;;;;23.60;21.60;;;;;;;;;;5032701;28;20450;-41
2023/07/29 03:23:12;;;;;;;21.87;20.20;;;;;;;;;;5032505;28;20481;-41
2023/07/29 03:25:41;;;;;;;21.37;19.70;;;;;;;;;;5032027;28;20609;-43
2023/07/29 03:28:09;;;;;;;24.20;22.30;;;;;;;;;;5032450;28;20424;-42
2023/07/29 03:30:37;;;;;;;23.67;21.70;;;;;;;;;;5032569;28;20432;-43
2023/07/29 03:33:05;;;;;;;21.03;19.43;;;;;;;;;;5032148;28;20436;-41
2023/07/29 03:35:32;;;;;;;22.93;20.97;;;;;;;;;;5031161;28;20468;-41
2023/07/29 03:38:00;;;;;;;21.37;19.77;;;;;;;;;;5032463;28;20563;-41
2023/07/29 03:40:27;;;;;;;23.17;21.17;;;;;;;;;;5032206;28;20510;-41
2023/07/29 03:42:56;;;;;;;21.30;19.80;;;;;;;;;;5032153;28;20526;-41
2023/07/29 03:45:24;;;;;;;22.03;20.13;;;;;;;;;;5031594;28;20468;-43
2023/07/29 03:47:51;;;;;;;20.73;19.03;;;;;;;;;;5032056;28;20530;-44
2023/07/29 03:50:19;;;;;;;20.43;18.83;;;;;;;;;;5032343;28;20428;-43
2023/07/29 03:52:46;;;;;;;20.97;19.50;;;;;;;;;;5032117;28;20440;-41
2023/07/29 03:55:14;;;;;;;20.97;19.27;;;;;;;;;;5031029;28;20555;-43
2023/07/29 03:57:41;;;;;;;22.20;20.50;;;;;;;;;;5032118;28;20519;-42
2023/07/29 04:00:10;;;;;;;24.70;22.63;;;;;;;;;;5031863;28;20472;-42
2023/07/29 04:02:38;;;;;;;22.73;21.03;;;;;;;;;;5031774;28;20939;-41
2023/07/29 04:05:08;;;;;;;22.90;21.23;;;;;;;;;;5028690;28;20471;-40
2023/07/29 04:07:35;;;;;;;23.80;21.80;;;;;;;;;;5031876;28;20494;-42
2023/07/29 04:10:04;;;;;;;23.07;21.07;;;;;;;;;;5031903;28;20527;-43
2023/07/29 04:12:31;;;;;;;25.10;22.80;;;;;;;;;;5031585;28;20467;-40
2023/07/29 04:14:58;;;;;;;24.33;22.43;;;;;;;;;;5031233;28;20564;-42
2023/07/29 04:17:27;;;;;;;24.53;22.47;;;;;;;;;;5031369;28;20922;-41
2023/07/29 04:19:55;;;;;;;23.70;21.80;;;;;;;;;;5031836;28;20471;-43
2023/07/29 04:22:22;;;;;;;23.77;21.87;;;;;;;;;;5031559;28;20514;-42
2023/07/29 04:24:50;;;;;;;23.97;21.87;;;;;;;;;;5031094;28;20898;-40
2023/07/29 04:27:17;;;;;;;24.27;22.30;;;;;;;;;;5031360;28;20450;-42
2023/07/29 04:29:46;;;;;;;22.70;21.03;;;;;;;;;;5031738;28;20456;-40
2023/07/29 04:32:13;;;;;;;22.57;20.87;;;;;;;;;;5031330;28;20956;-42
2023/07/29 04:34:42;;;;;;;24.00;21.80;;;;;;;;;;5031235;28;20464;-40
2023/07/29 04:37:10;;;;;;;23.70;21.80;;;;;;;;;;5030395;28;20428;-42
2023/07/29 04:39:37;;;;;;;25.83;23.50;;;;;;;;;;5031501;28;20522;-40
2023/07/29 04:42:05;;;;;;;24.60;22.57;;;;;;;;;;5031429;28;20431;-43
2023/07/29 04:44:33;;;;;;;25.30;22.80;;;;;;;;;;5031004;28;20471;-42
2023/07/29 04:47:00;;;;;;;22.90;21.20;;;;;;;;;;5031513;28;20807;-40
2023/07/29 04:49:28;;;;;;;22.37;20.67;;;;;;;;;;5031492;28;20803;-41
2023/07/29 04:51:56;;;;;;;23.10;21.20;;;;;;;;;;5030712;28;20960;-42
2023/07/29 04:54:24;;;;;;;25.57;23.20;;;;;;;;;;5030890;28;20479;-43
2023/07/29 04:56:51;;;;;;;26.90;24.23;;;;;;;;;;5031459;28;20424;-41
2023/07/29 04:59:19;;;;;;;22.87;21.00;;;;;;;;;;5022276;28;20596;-40
2023/07/29 05:01:47;;;;;;;25.00;22.77;;;;;;;;;;5010737;28;20464;-40
2023/07/29 05:04:15;;;;;;;24.00;21.87;;;;;;;;;;5010937;28;20483;-43
2023/07/29 05:06:43;;;;;;;23.67;21.63;;;;;;;;;;5011301;28;20441;-41
2023/07/29 05:09:15;;;;;;;22.40;20.50;;;;;;;;;;5011007;28;20524;-42
2023/07/29 05:11:43;;;;;;;22.13;20.47;;;;;;;;;;5011275;28;20432;-40
2023/07/29 05:14:10;;;;;;;24.00;22.17;;;;;;;;;;5011020;28;20464;-44
2023/07/29 05:16:38;;;;;;;22.80;21.20;;;;;;;;;;5010984;28;20528;-41
2023/07/29 05:19:05;;;;;;;22.53;20.90;;;;;;;;;;5011210;28;20850;-42
2023/07/29 05:21:33;;;;;;;21.93;20.33;;;;;;;;;;5010902;28;20433;-43
2023/07/29 05:24:01;;;;;;;23.47;21.77;;;;;;;;;;5010621;28;21243;-41
2023/07/29 05:26:30;;;;;;;23.87;22.07;;;;;;;;;;5011066;28;20444;-41
2023/07/29 05:28:57;;;;;;;21.83;20.23;;;;;;;;;;5009989;28;20456;-40
2023/07/29 05:31:25;;;;;;;23.47;21.63;;;;;;;;;;5014710;28;20433;-40
2023/07/29 05:33:52;;;;;;;25.07;23.03;;;;;;;;;;5014497;28;20467;-41
2023/07/29 05:36:20;;;;;;;23.67;21.87;;;;;;;;;;5014783;28;20436;-40
2023/07/29 05:38:47;;;;;;;23.40;21.63;;;;;;;;;;5015013;28;20433;-41
2023/07/29 05:41:15;;;;;;;22.13;20.57;;;;;;;;;;5014677;28;21005;-40
2023/07/29 05:43:45;;;;;;;24.53;22.70;;;;;;;;;;5013024;28;20476;-41
2023/07/29 05:46:12;;;;;;;21.90;20.20;;;;;;;;;;5014890;28;20425;-40
2023/07/29 05:48:40;;;;;;;22.67;20.97;;;;;;;;;;5014576;28;20440;-42
2023/07/29 05:51:07;;;;;;;21.43;20.03;;;;;;;;;;5014855;28;20856;-41
2023/07/29 05:53:35;;;;;;;17.50;16.50;;;;;;;;;;5014152;28;20456;-41
2023/07/29 05:56:02;;;;;;;20.10;18.90;;;;;;;;;;5014960;28;20459;-42
2023/07/29 05:58:31;;;;;;;17.83;16.80;;;;;;;;;;5014248;28;20961;-41
2023/07/29 06:01:00;;;;;;;18.40;17.50;;;;;;;;;;5017758;28;21015;-42
2023/07/29 06:03:27;;;;;;;18.87;17.87;;;;;;;;;;5029657;28;20439;-43
2023/07/29 06:05:55;;;;;;;19.20;18.20;;;;;;;;;;5031032;28;20468;-44
2023/07/29 06:08:22;;;;;;;17.37;16.37;;;;;;;;;;5031488;28;20442;-41
2023/07/29 06:10:50;;;;;;;16.70;15.90;;;;;;;;;;5032362;28;20511;-44
2023/07/29 06:13:17;;;;;;;17.43;16.30;;;;;;;;;;5031403;28;20523;-44
2023/07/29 06:15:45;;;;;;;17.30;16.30;;;;;;;;;;5031409;28;20910;-41
2023/07/29 06:18:15;;;;;;;15.60;14.80;;;;;;;;;;5036962;28;20416;-44
2023/07/29 06:20:42;;;;;;;15.03;14.13;;;;;;;;;;5040337;28;20514;-43
2023/07/29 06:23:10;;;;;;;15.30;14.50;;;;;;;;;;5039020;28;20428;-42
2023/07/29 06:25:37;;;;;;;14.30;13.70;;;;;;;;;;5039771;28;20480;-42
2023/07/29 06:28:05;;;;;;;14.83;14.17;;;;;;;;;;5039689;28;20447;-42
2023/07/29 06:30:33;;;;;;;13.70;13.00;;;;;;;;;;5040433;28;20987;-41
2023/07/29 06:33:02;;;;;;;14.10;13.30;;;;;;;;;;5040845;28;20489;-43
2023/07/29 06:35:31;;;;;;;11.87;11.37;;;;;;;;;;5038729;28;20522;-43
2023/07/29 06:37:59;;;;;;;11.67;11.17;;;;;;;;;;5038788;28;20438;-42
2023/07/29 06:40:26;;;;;;;10.10;9.63;;;;;;;;;;5033161;28;20506;-41
2023/07/29 06:42:54;;;;;;;10.00;9.60;;;;;;;;;;5037388;28;20937;-43
2023/07/29 06:45:21;;;;;;;9.30;8.90;;;;;;;;;;5037364;28;20469;-43
2023/07/29 06:47:49;;;;;;;7.70;7.40;;;;;;;;;;5037378;28;20450;-42
2023/07/29 06:50:17;;;;;;;6.83;6.63;;;;;;;;;;5037757;28;20495;-42
2023/07/29 06:52:45;;;;;;;7.00;6.47;;;;;;;;;;5038704;28;20503;-41
2023/07/29 06:55:13;;;;;;;6.10;5.83;;;;;;;;;;5039127;28;20464;-41
2023/07/29 06:57:40;;;;;;;6.77;6.47;;;;;;;;;;5038970;28;20436;-42
2023/07/29 07:00:09;;;;;;;7.10;6.67;;;;;;;;;;5039144;28;20499;-42
2023/07/29 07:02:36;;;;;;;6.20;5.80;;;;;;;;;;5039065;28;20490;-42
2023/07/29 07:05:04;;;;;;;6.67;6.37;;;;;;;;;;5038418;28;20530;-42
2023/07/29 07:07:32;;;;;;;6.60;6.30;;;;;;;;;;5040189;28;20801;-42
2023/07/29 07:10:01;;;;;;;5.43;5.13;;;;;;;;;;5039889;28;20424;-41
2023/07/29 07:12:29;;;;;;;6.77;6.37;;;;;;;;;;5038680;28;20438;-42
2023/07/29 07:14:56;;;;;;;6.10;5.70;;;;;;;;;;5038087;28;20464;-42
2023/07/29 07:17:24;;;;;;;7.13;6.73;;;;;;;;;;5038116;28;20471;-42
2023/07/29 07:19:51;;;;;;;7.10;6.80;;;;;;;;;;5038856;28;20420;-42
2023/07/29 07:22:19;;;;;;;6.63;6.00;;;;;;;;;;5036147;28;20489;-44
2023/07/29 07:24:46;;;;;;;7.10;6.70;;;;;;;;;;5035574;28;20857;-42
2023/07/29 07:27:15;;;;;;;6.53;6.23;;;;;;;;;;5037925;28;20825;-41
2023/07/29 07:29:42;;;;;;;7.60;6.97;;;;;;;;;;5036757;28;20420;-43
2023/07/29 07:32:10;;;;;;;7.07;6.67;;;;;;;;;;5036106;28;20832;-42
2023/07/29 07:34:37;;;;;;;6.70;6.40;;;;;;;;;;5035657;28;20490;-43
2023/07/29 07:37:05;;;;;;;7.83;7.10;;;;;;;;;;5037161;28;20455;-43
2023/07/29 07:39:33;;;;;;;6.27;6.00;;;;;;;;;;5037249;28;20459;-44
2023/07/29 07:42:00;;;;;;;6.77;6.47;;;;;;;;;;5037095;28;20499;-43
2023/07/29 07:44:29;;;;;;;7.70;7.17;;;;;;;;;;5036180;28;21237;-43
2023/07/29 07:46:57;;;;;;;7.03;6.70;;;;;;;;;;5037512;28;20482;-41
2023/07/29 07:49:24;;;;;;;7.83;7.40;;;;;;;;;;5036035;28;20459;-44
2023/07/29 07:51:52;;;;;;;7.10;6.80;;;;;;;;;;5036820;28;20431;-42
2023/07/29 07:54:19;;;;;;;8.60;8.10;;;;;;;;;;5035904;28;20488;-42
2023/07/29 07:56:47;;;;;;;8.60;8.10;;;;;;;;;;5038669;28;20455;-41
2023/07/29 07:59:15;;;;;;;9.40;8.80;;;;;;;;;;5037833;28;20430;-41
2023/07/29 08:01:46;;;;;;;9.40;8.70;;;;;;;;;;5036629;28;20471;-42
2023/07/29 08:04:14;;;;;;;8.60;8.00;;;;;;;;;;5037231;28;20468;-44
2023/07/29 08:06:42;;;;;;;8.37;7.83;;;;;;;;;;5038359;28;20510;-42
2023/07/29 08:09:09;;;;;;;7.70;7.10;;;;;;;;;;5037039;28;20450;-44
2023/07/29 08:11:37;;;;;;;9.00;8.40;;;;;;;;;;5037969;28;20450;-43
2023/07/29 08:14:05;;;;;;;9.43;8.83;;;;;;;;;;5035603;28;20547;-42
2023/07/29 08:16:32;;;;;;;8.57;8.00;;;;;;;;;;5036038;28;20870;-44
2023/07/29 08:19:01;;;;;;;10.93;10.27;;;;;;;;;;5036198;28;20496;-42
2023/07/29 08:21:28;;;;;;;10.53;9.67;;;;;;;;;;5036399;28;20498;-42
2023/07/29 08:23:56;;;;;;;12.30;11.40;;;;;;;;;;5036284;28;20494;-41
2023/07/29 08:26:23;;;;;;;10.73;10.10;;;;;;;;;;5036760;28;20427;-42
2023/07/29 08:28:51;;;;;;;9.87;9.27;;;;;;;;;;5037900;28;20423;-42
2023/07/29 08:31:21;;;;;;;10.43;9.83;;;;;;;;;;5038347;28;20931;-43
2023/07/29 08:33:49;;;;;;;9.13;8.63;;;;;;;;;;5036830;28;20475;-41
2023/07/29 08:36:18;;;;;;;11.47;10.67;;;;;;;;;;5036070;28;20443;-42
2023/07/29 08:38:46;;;;;;;10.33;9.53;;;;;;;;;;5037656;28;20431;-44
2023/07/29 08:41:14;;;;;;;11.27;10.30;;;;;;;;;;5036964;28;20456;-42
2023/07/29 08:43:44;;;;;;;10.50;9.80;;;;;;;;;;5034906;28;20448;-42
2023/07/29 08:46:13;;;;;;;10.57;9.97;;;;;;;;;;5037734;28;21267;-41
2023/07/29 08:48:42;;;;;;;10.80;10.00;;;;;;;;;;5038196;28;20432;-41
2023/07/29 08:51:10;;;;;;;10.03;9.43;;;;;;;;;;5028340;28;20483;-42
2023/07/29 08:53:40;;;;;;;11.43;10.63;;;;;;;;;;5016956;28;20460;-42
2023/07/29 08:56:07;;;;;;;11.93;10.50;;;;;;;;;;5019421;28;20508;-43
2023/07/29 08:58:35;;;;;;;11.00;10.20;;;;;;;;;;5018308;28;20523;-43
2023/07/29 09:01:03;;;;;;;12.13;11.17;;;;;;;;;;5018516;28;20563;-42
2023/07/29 09:03:30;;;;;;;12.50;11.50;;;;;;;;;;5018910;28;20431;-42
2023/07/29 09:05:58;;;;;;;12.73;11.60;;;;;;;;;;5041663;28;20997;-43
2023/07/29 09:08:26;;;;;;;13.23;12.33;;;;;;;;;;5042856;28;20431;-42
2023/07/29 09:10:56;;;;;;;11.73;10.93;;;;;;;;;;5042354;28;20427;-44
2023/07/29 09:13:23;;;;;;;12.60;11.60;;;;;;;;;;5041846;28;20431;-42
2023/07/29 09:15:54;;;;;;;11.50;10.60;;;;;;;;;;5041109;28;20471;-42
2023/07/29 09:18:22;;;;;;;11.70;10.73;;;;;;;;;;5041950;28;20870;-42
2023/07/29 09:20:50;;;;;;;10.37;9.77;;;;;;;;;;5041299;28;20490;-41
2023/07/29 09:23:18;;;;;;;11.17;10.47;;;;;;;;;;5042159;28;20511;-43
2023/07/29 09:25:47;;;;;;;9.17;8.67;;;;;;;;;;5041185;28;20467;-41
2023/07/29 09:28:16;;;;;;;10.53;9.50;;;;;;;;;;5042526;28;20467;-42
2023/07/29 09:30:46;;;;;;;9.77;9.07;;;;;;;;;;5041545;28;20450;-41
2023/07/29 09:33:14;;;;;;;9.50;8.80;;;;;;;;;;5042414;28;20400;-42
2023/07/29 09:35:42;;;;;;;10.20;9.50;;;;;;;;;;5041949;28;20661;-44
2023/07/29 09:38:15;;;;;;;10.73;9.93;;;;;;;;;;5042234;28;20428;-41
2023/07/29 09:40:44;;;;;;;12.47;9.90;;;;;;;;;;5041340;28;20960;-42
2023/07/29 09:43:12;;;;;;;10.53;9.63;;;;;;;;;;5040792;28;20538;-42
2023/07/29 09:45:41;;;;;;;8.93;8.23;;;;;;;;;;5041193;28;20463;-42
2023/07/29 09:48:10;;;;;;;9.20;8.60;;;;;;;;;;5040706;28;20439;-45
2023/07/29 09:50:38;;;;;;;9.13;8.53;;;;;;;;;;5041070;28;20429;-41
2023/07/29 09:53:08;;;;;;;8.70;8.20;;;;;;;;;;5040900;28;21035;-41
2023/07/29 09:55:35;;;;;;;6.83;6.43;;;;;;;;;;5040105;28;20474;-42
2023/07/29 09:58:06;;;;;;;6.90;6.60;;;;;;;;;;5042606;28;20442;-43
2023/07/29 10:00:34;;;;;;;7.23;6.63;;;;;;;;;;5039674;28;20442;-41
2023/07/29 10:03:04;;;;;;;9.70;7.90;;;;;;;;;;5040597;28;20472;-42
2023/07/29 10:05:31;;;;;;;7.07;6.47;;;;;;;;;;5039743;28;20464;-41
2023/07/29 10:07:59;;;;;;;7.47;7.00;;;;;;;;;;5040109;28;20438;-46
2023/07/29 10:10:28;;;;;;;6.60;6.27;;;;;;;;;;5038899;28;20428;-43
2023/07/29 10:12:55;;;;;;;5.80;5.40;;;;;;;;;;5039703;28;20459;-42
2023/07/29 10:15:23;;;;;;;5.40;5.20;;;;;;;;;;5040098;28;20476;-43
2023/07/29 10:17:51;;;;;;;5.60;5.30;;;;;;;;;;5039826;28;20538;-43
2023/07/29 10:20:20;;;;;;;5.97;5.67;;;;;;;;;;5040451;28;20436;-41
2023/07/29 10:22:48;;;;;;;6.53;6.03;;;;;;;;;;5040235;28;20472;-43
2023/07/29 10:25:17;;;;;;;5.20;4.90;;;;;;;;;;5037616;28;20491;-41
2023/07/29 10:27:48;;;;;;;5.47;5.27;;;;;;;;;;5040494;28;21039;-43
2023/07/29 10:30:15;;;;;;;6.07;5.70;;;;;;;;;;5040173;28;20478;-42
2023/07/29 10:32:44;;;;;;;6.20;5.70;;;;;;;;;;5038728;28;20432;-43
2023/07/29 10:35:12;;;;;;;5.87;5.47;;;;;;;;;;5038046;28;20468;-42
2023/07/29 10:37:42;;;;;;;5.50;5.20;;;;;;;;;;5039446;28;20510;-44
2023/07/29 10:40:10;;;;;;;5.40;5.10;;;;;;;;;;5040226;28;20858;-41
2023/07/29 10:42:38;;;;;;;6.87;4.40;;;;;;;;;;5040581;28;20494;-43
2023/07/29 10:45:18;;;;;;;5.47;5.17;;;;;;;;;;5039155;28;20538;-42
2023/07/29 10:47:46;;;;;;;4.90;4.60;;;;;;;;;;5040355;28;20434;-42
2023/07/29 10:50:18;;;;;;;4.63;4.43;;;;;;;;;;5038922;28;20466;-41
2023/07/29 10:52:49;;;;;;;5.87;5.57;;;;;;;;;;5040082;28;21162;-44
2023/07/29 10:55:25;;;;;;;5.57;5.17;;;;;;;;;;5039501;28;20461;-43
2023/07/29 10:57:53;;;;;;;6.67;6.37;;;;;;;;;;5040685;28;20435;-46
2023/07/29 11:00:22;;;;;;;6.73;6.17;;;;;;;;;;5040784;28;20530;-42
2023/07/29 11:02:57;;;;;;;5.60;5.30;;;;;;;;;;5037827;28;20472;-42
2023/07/29 11:05:25;;;;;;;5.00;4.70;;;;;;;;;;5037232;28;20470;-44
2023/07/29 11:07:54;;;;;;;5.27;4.87;;;;;;;;;;5038682;28;20459;-41
2023/07/29 11:10:21;;;;;;;5.23;4.97;;;;;;;;;;5037330;28;20432;-45
2023/07/29 11:12:51;;;;;;;5.20;4.93;;;;;;;;;;5038195;28;20424;-44
2023/07/29 11:15:19;;;;;;;5.03;4.47;;;;;;;;;;5037480;28;20547;-42
2023/07/29 11:17:48;;;;;;;4.47;4.27;;;;;;;;;;5038724;28;20432;-41
2023/07/29 11:20:17;;;;;;;4.90;4.50;;;;;;;;;;5039140;28;20435;-42
2023/07/29 11:22:45;;;;;;;6.43;4.43;;;;;;;;;;5038494;28;20525;-41
2023/07/29 11:25:15;;;;;;;4.00;3.70;;;;;;;;;;5036916;28;20459;-44
2023/07/29 11:27:42;;;;;;;4.10;3.90;;;;;;;;;;5036709;28;20423;-42
2023/07/29 11:30:10;;;;;;;4.37;4.17;;;;;;;;;;5039016;28;20467;-45
2023/07/29 11:32:38;;;;;;;4.60;4.30;;;;;;;;;;5038630;28;20419;-42
2023/07/29 11:35:08;;;;;;;4.40;4.03;;;;;;;;;;5037063;28;20469;-42
2023/07/29 11:37:36;;;;;;;4.10;3.90;;;;;;;;;;5037376;28;20478;-41
2023/07/29 11:40:05;;;;;;;4.53;3.73;;;;;;;;;;5037267;28;20435;-43
2023/07/29 11:42:34;;;;;;;4.20;4.00;;;;;;;;;;5037245;28;20471;-42
2023/07/29 11:45:02;;;;;;;4.10;3.90;;;;;;;;;;5037393;28;20856;-41
2023/07/29 11:47:30;;;;;;;4.00;3.73;;;;;;;;;;5036131;28;20463;-44
2023/07/29 11:50:00;;;;;;;3.87;3.67;;;;;;;;;;5035764;28;20450;-42
2023/07/29 11:52:28;;;;;;;4.23;4.03;;;;;;;;;;5036343;28;20435;-42
2023/07/29 11:54:55;;;;;;;4.20;3.90;;;;;;;;;;5036119;28;20479;-41
2023/07/29 11:57:24;;;;;;;4.50;4.20;;;;;;;;;;5037632;28;20428;-43
2023/07/29 11:59:53;;;;;;;4.57;4.37;;;;;;;;;;5038124;28;20432;-43
2023/07/29 12:02:21;;;;;;;4.00;3.80;;;;;;;;;;5036828;28;20969;-42
2023/07/29 12:04:49;;;;;;;4.50;4.30;;;;;;;;;;5036751;28;20463;-45
2023/07/29 12:07:17;;;;;;;5.20;4.80;;;;;;;;;;5036748;28;20515;-43
2023/07/29 12:09:45;;;;;;;5.40;4.90;;;;;;;;;;5036193;28;20474;-43
2023/07/29 12:12:13;;;;;;;4.60;4.20;;;;;;;;;;5035431;28;20831;-41
2023/07/29 12:14:44;;;;;;;4.50;4.20;;;;;;;;;;5035480;28;20486;-41
2023/07/29 12:17:13;;;;;;;5.33;5.03;;;;;;;;;;5035882;28;20466;-41
2023/07/29 12:19:41;;;;;;;7.13;6.10;;;;;;;;;;5035498;28;20431;-44
2023/07/29 12:22:09;;;;;;;7.07;5.83;;;;;;;;;;5035888;28;20443;-45
2023/07/29 12:24:37;;;;;;;5.67;5.37;;;;;;;;;;5035410;28;20466;-43
2023/07/29 12:27:05;;;;;;;5.73;5.23;;;;;;;;;;5035540;28;20810;-42
2023/07/29 12:29:33;;;;;;;6.17;5.57;;;;;;;;;;5035668;28;20474;-42
2023/07/29 12:32:01;;;;;;;6.70;6.10;;;;;;;;;;5034782;28;20431;-42
2023/07/29 12:34:31;;;;;;;6.77;6.37;;;;;;;;;;5035064;28;20479;-43
2023/07/29 12:36:59;;;;;;;5.77;5.37;;;;;;;;;;5036490;28;20431;-44
2023/07/29 12:39:27;;;;;;;5.50;5.00;;;;;;;;;;5035490;28;20423;-42
2023/07/29 12:41:56;;;;;;;6.10;5.70;;;;;;;;;;5035282;28;20455;-42
2023/07/29 12:44:24;;;;;;;6.77;6.17;;;;;;;;;;5034189;28;20495;-43
2023/07/29 12:46:51;;;;;;;5.53;5.10;;;;;;;;;;5035398;28;20475;-46
2023/07/29 12:49:20;;;;;;;5.40;5.10;;;;;;;;;;5035253;28;20459;-44
2023/07/29 12:51:48;;;;;;;5.17;4.97;;;;;;;;;;5035228;28;20660;-42
2023/07/29 12:54:16;;;;;;;5.70;5.20;;;;;;;;;;5035109;28;20472;-42
2023/07/29 12:56:43;;;;;;;6.03;5.43;;;;;;;;;;5036602;28;20485;-41
2023/07/29 12:59:11;;;;;;;6.53;5.03;;;;;;;;;;5038734;28;20432;-42
2023/07/29 13:01:38;;;;;;;4.53;4.17;;;;;;;;;;5038444;28;20845;-42
2023/07/29 13:04:06;;;;;;;4.83;4.43;;;;;;;;;;5037522;28;20460;-42
2023/07/29 13:06:33;;;;;;;5.50;5.10;;;;;;;;;;5038003;28;20436;-43
2023/07/29 13:09:03;;;;;;;5.13;4.83;;;;;;;;;;5038106;28;20489;-44
2023/07/29 13:11:32;;;;;;;5.40;5.00;;;;;;;;;;5038505;28;20826;-43
2023/07/29 13:14:00;;;;;;;5.13;4.57;;;;;;;;;;5037152;28;20456;-41
2023/07/29 13:16:28;;;;;;;29.27;26.93;;;;;;;;;;5037509;28;20428;-43
2023/07/29 13:18:56;;;;;;;46.83;35.50;;;;;;;;;;5038015;28;20481;-41
2023/07/29 13:21:23;;;;;;;6.83;6.20;;;;;;;;;;5037364;28;20499;-42
2023/07/29 13:23:52;;;;;;;5.20;4.70;;;;;;;;;;5036829;28;20447;-47
2023/07/29 13:26:20;;;;;;;5.63;5.23;;;;;;;;;;5038056;28;20443;-43
2023/07/29 13:28:48;;;;;;;5.10;4.70;;;;;;;;;;5038917;28;20463;-44
2023/07/29 13:31:15;;;;;;;5.87;5.47;;;;;;;;;;5036966;28;20434;-44
2023/07/29 13:33:43;;;;;;;6.37;5.67;;;;;;;;;;5035860;28;20466;-47
2023/07/29 13:36:11;;;;;;;5.20;4.90;;;;;;;;;;5038647;28;20436;-44
2023/07/29 13:38:38;;;;;;;6.10;5.47;;;;;;;;;;5037890;28;20428;-43
2023/07/29 13:41:06;;;;;;;7.13;6.23;;;;;;;;;;5037250;28;20997;-42
2023/07/29 13:43:34;;;;;;;6.20;5.60;;;;;;;;;;5037748;28;20473;-42
2023/07/29 13:46:01;;;;;;;6.50;5.90;;;;;;;;;;5037949;28;20432;-41
2023/07/29 13:48:28;;;;;;;6.80;6.20;;;;;;;;;;5032362;28;20427;-42
2023/07/29 13:50:56;;;;;;;6.80;6.10;;;;;;;;;;5032637;28;20442;-44
2023/07/29 13:53:23;;;;;;;6.97;5.60;;;;;;;;;;5034312;28;20522;-46
2023/07/29 13:55:51;;;;;;;9.70;6.63;;;;;;;;;;5034190;28;20483;-43
2023/07/29 13:58:18;;;;;;;8.93;6.17;;;;;;;;;;5034123;28;20470;-41
2023/07/29 14:00:47;;;;;;;6.10;5.50;;;;;;;;;;5034487;28;20431;-41
2023/07/29 14:03:15;;;;;;;6.77;6.10;;;;;;;;;;5033607;28;20468;-41
2023/07/29 14:05:42;;;;;;;7.97;6.93;;;;;;;;;;5031185;28;20463;-42
2023/07/29 14:08:10;;;;;;;7.10;5.70;;;;;;;;;;5031450;28;20523;-43
2023/07/29 14:10:37;;;;;;;5.93;5.40;;;;;;;;;;5033774;28;20467;-42
2023/07/29 14:13:05;;;;;;;5.93;5.37;;;;;;;;;;5033400;28;20443;-43
2023/07/29 14:15:33;;;;;;;7.70;5.70;;;;;;;;;;5032000;28;20464;-41
2023/07/29 14:18:02;;;;;;;6.47;5.83;;;;;;;;;;5031223;28;20439;-42
2023/07/29 14:20:30;;;;;;;6.17;5.40;;;;;;;;;;5024495;28;20432;-42
2023/07/29 14:22:57;;;;;;;7.07;6.10;;;;;;;;;;5032336;28;20510;-42
2023/07/29 14:25:25;;;;;;;6.80;6.10;;;;;;;;;;5031060;28;20474;-42
2023/07/29 14:27:52;;;;;;;9.33;5.43;;;;;;;;;;5032487;28;20498;-42
2023/07/29 14:30:20;;;;;;;12.93;5.73;;;;;;;;;;5032965;28;20432;-43
2023/07/29 14:32:47;;;;;;;6.00;4.87;;;;;;;;;;5032034;28;20455;-44